Time;durP1;ratioP1;P1;durP2;ratioP2;P2;SDS_P1;SDS_P2;PMS_P1;PMS_P2;Temp;Humidity;BMP_temperature;BMP_pressure;BME280_temperature;BME280_humidity;BME280_pressure;Samples;Min_cycle;Max_cycle;Signal;HPM_P1;HPM_P2
2023/06/09 00:00:21;;;;;;;;;22.00;22.00;;;;;;;;1970588;28;3589795;-75
2023/06/09 00:01:35;;;;;;;;;19.67;17.00;;;;;;;;1976511;28;3568971;-75
2023/06/09 00:02:52;;;;;;;;;19.00;19.00;;;;;;;;1960064;28;3577371;-75
2023/06/09 00:04:03;;;;;;;;;20.33;20.33;;;;;;;;1960103;28;3580468;-75
2023/06/09 00:05:15;;;;;;;;;21.00;19.33;;;;;;;;1977182;28;3572180;-75
2023/06/09 00:06:27;;;;;;;;;20.80;19.80;;;;;;;;1978106;28;3571073;-75
2023/06/09 00:07:38;;;;;;;;;20.20;18.60;;;;;;;;1963269;28;2836769;-75
2023/06/09 00:08:50;;;;;;;;;23.20;20.00;;;;;;;;2010781;28;3567921;-75
2023/06/09 00:10:02;;;;;;;;;19.40;18.00;;;;;;;;1988272;28;3566856;-75
2023/06/09 00:11:14;;;;;;;;;23.00;21.67;;;;;;;;1953821;28;3582536;-76
2023/06/09 00:12:27;;;;;;;;;21.88;21.13;;;;;;;;1982644;28;3586719;-75
2023/06/09 00:13:39;;;;;;;;;23.00;21.33;;;;;;;;1973058;28;3572104;-75
2023/06/09 00:14:50;;;;;;;;;22.20;21.00;;;;;;;;1964684;28;2839905;-75
2023/06/09 00:16:01;;;;;;;;;21.00;18.00;;;;;;;;1978788;28;3571023;-75
2023/06/09 00:17:13;;;;;;;;;24.00;19.80;;;;;;;;1972407;28;3587697;-76
2023/06/09 00:18:25;;;;;;;;;19.33;19.00;;;;;;;;1948484;28;3571105;-76
2023/06/09 00:19:37;;;;;;;;;21.33;19.00;;;;;;;;1969518;28;3576298;-76
2023/06/09 00:20:50;;;;;;;;;24.00;22.00;;;;;;;;1963145;28;3581505;-76
2023/06/09 00:22:02;;;;;;;;;21.67;21.67;;;;;;;;1947986;28;3585652;-76
2023/06/09 00:23:13;;;;;;;;;21.00;19.00;;;;;;;;1953054;28;3556519;-76
2023/06/09 00:24:25;;;;;;;;;23.40;21.00;;;;;;;;1971235;28;3577284;-76
2023/06/09 00:25:39;;;;;;;;;25.75;24.38;;;;;;;;1975156;28;3586678;-76
2023/06/09 00:26:51;;;;;;;;;22.33;21.67;;;;;;;;1981510;28;3583553;-76
2023/06/09 00:28:02;;;;;;;;;22.67;21.67;;;;;;;;1961441;28;3575311;-76
2023/06/09 00:29:17;;;;;;;;;23.13;22.75;;;;;;;;1972422;28;3591894;-76
2023/06/09 00:30:28;;;;;;;;;23.67;22.00;;;;;;;;1967519;28;3573142;-76
2023/06/09 00:31:42;;;;;;;;;24.63;23.50;;;;;;;;1969125;28;3592929;-76
2023/06/09 00:32:53;;;;;;;;;21.67;20.67;;;;;;;;1972755;28;3575288;-76
2023/06/09 00:34:06;;;;;;;;;26.13;25.13;;;;;;;;1969528;28;3598108;-76
2023/06/09 00:35:18;;;;;;;;;23.00;20.33;;;;;;;;1965629;28;3564872;-78
2023/06/09 00:36:30;;;;;;;;;25.67;23.67;;;;;;;;1956248;28;3593990;-79
2023/06/09 00:37:43;;;;;;;;;23.86;23.86;;;;;;;;1966875;28;3592901;-79
2023/06/09 00:38:56;;;;;;;;;23.13;23.13;;;;;;;;1972388;28;3582614;-79
2023/06/09 00:40:08;;;;;;;;;22.33;21.33;;;;;;;;1968924;28;3578354;-79
2023/06/09 00:41:20;;;;;;;;;21.00;20.33;;;;;;;;1953130;28;3578357;-79
2023/06/09 00:42:33;;;;;;;;;24.00;22.33;;;;;;;;1961490;28;3582535;-79
2023/06/09 00:43:47;;;;;;;;;24.50;21.50;;;;;;;;1955063;28;2844004;-79
2023/06/09 00:44:59;;;;;;;;;24.67;23.00;;;;;;;;1945222;28;3581876;-79
2023/06/09 00:46:10;;;;;;;;;24.33;21.67;;;;;;;;1965424;28;3582519;-79
2023/06/09 00:47:21;;;;;;;;;22.80;20.20;;;;;;;;1962648;28;2836739;-79
2023/06/09 00:48:34;;;;;;;;;24.00;21.80;;;;;;;;1983027;28;2844053;-79
2023/06/09 00:49:45;;;;;;;;;24.00;23.00;;;;;;;;1977295;28;2844044;-79
2023/06/09 00:50:57;;;;;;;;;21.33;21.00;;;;;;;;1957532;28;3582556;-79
2023/06/09 00:52:09;;;;;;;;;25.33;24.00;;;;;;;;1945306;28;3598144;-79
2023/06/09 00:53:22;;;;;;;;;21.67;20.00;;;;;;;;1945925;28;3577332;-79
2023/06/09 00:54:34;;;;;;;;;22.33;21.33;;;;;;;;1953386;28;3581498;-79
2023/06/09 00:55:45;;;;;;;;;25.20;22.80;;;;;;;;1966544;28;2850323;-79
2023/06/09 00:56:56;;;;;;;;;25.00;23.00;;;;;;;;1984109;28;2843059;-79
2023/06/09 00:58:08;;;;;;;;;24.33;24.33;;;;;;;;1995599;28;3577373;-79
2023/06/09 00:59:21;;;;;;;;;27.29;22.71;;;;;;;;1982940;28;3578391;-79
2023/06/09 01:00:35;;;;;;;;;26.13;23.38;;;;;;;;1979399;28;3587736;-79
2023/06/09 01:01:47;;;;;;;;;20.67;18.00;;;;;;;;1977694;28;3578369;-79
2023/06/09 01:03:02;;;;;;;;;22.33;20.67;;;;;;;;1958568;28;3579457;-79
2023/06/09 01:04:13;;;;;;;;;22.00;21.67;;;;;;;;1952331;28;3575225;-79
2023/06/09 01:05:25;;;;;;;;;20.60;18.80;;;;;;;;1960199;28;2845076;-79
2023/06/09 01:06:46;;;;;;;;;22.33;21.00;;;;;;;;1992735;28;3581471;-79
2023/06/09 01:08:01;;;;;;;;;22.67;21.00;;;;;;;;1959146;28;3580476;-79
2023/06/09 01:09:20;;;;;;;;;19.00;19.00;;;;;;;;1954606;28;2841948;-77
2023/06/09 01:10:38;;;;;;;;;23.67;23.67;;;;;;;;1944952;28;3592936;-77
2023/06/09 01:11:58;;;;;;;;;22.67;20.33;;;;;;;;1947039;28;3578362;-77
2023/06/09 01:13:16;;;;;;;;;22.67;22.67;;;;;;;;1947556;28;3582520;-77
2023/06/09 01:14:31;;;;;;;;;24.50;22.00;;;;;;;;1954754;28;2506497;-79
2023/06/09 01:15:48;;;;;;;;;23.50;22.00;;;;;;;;1952477;28;2839845;-76
2023/06/09 01:17:07;;;;;;;;;22.00;20.00;;;;;;;;1954399;28;3580437;-76
2023/06/09 01:18:20;;;;;;;;;22.00;21.33;;;;;;;;1952692;28;3584642;-76
2023/06/09 01:19:43;;;;;;;;;20.00;19.00;;;;;;;;1952759;28;3566895;-79
2023/06/09 01:21:02;;;;;;;;;24.00;23.00;;;;;;;;1948811;28;2832554;-79
2023/06/09 01:22:32;;;;;;;;;21.00;20.33;;;;;;;;1951913;28;3573145;-79
2023/06/09 01:23:58;;;;;;;;;23.00;21.67;;;;;;;;1951846;28;3575240;-79
2023/06/09 01:25:50;;;;;;;;;20.33;19.33;;;;;;;;1953321;28;3567925;-79
2023/06/09 01:27:02;;;;;;;;;28.00;22.67;;;;;;;;1913835;29;3581499;-79
2023/06/09 01:28:16;;;;;;;;;23.00;22.00;;;;;;;;1912258;29;3578382;-79
2023/06/09 01:29:29;;;;;;;;;21.67;20.67;;;;;;;;1908599;29;3571114;-79
2023/06/09 01:30:42;;;;;;;;;25.67;24.67;;;;;;;;1914595;29;3582528;-79
2023/06/09 01:31:54;;;;;;;;;21.33;20.33;;;;;;;;1907998;29;3580446;-79
2023/06/09 01:33:10;;;;;;;;;23.33;21.00;;;;;;;;1938447;28;3595067;-79
2023/06/09 01:34:22;;;;;;;;;27.00;21.67;;;;;;;;1954115;28;3594344;-79
2023/06/09 01:35:34;;;;;;;;;22.60;22.20;;;;;;;;1971185;28;3578318;-79
2023/06/09 01:36:47;;;;;;;;;22.00;22.00;;;;;;;;1961148;28;3583529;-79
2023/06/09 01:37:59;;;;;;;;;24.67;21.67;;;;;;;;1958478;28;3569006;-79
2023/06/09 01:39:11;;;;;;;;;22.33;18.00;;;;;;;;1971213;28;3576274;-78
2023/06/09 01:40:23;;;;;;;;;23.00;22.00;;;;;;;;1962360;28;3574186;-79
2023/06/09 01:41:35;;;;;;;;;21.00;21.00;;;;;;;;1958146;28;3571105;-79
2023/06/09 01:42:46;;;;;;;;;23.00;22.00;;;;;;;;1954426;28;2842978;-79
2023/06/09 01:43:59;;;;;;;;;23.00;22.25;;;;;;;;1974872;28;3585685;-79
2023/06/09 01:45:11;;;;;;;;;24.67;23.00;;;;;;;;1983415;28;3581473;-79
2023/06/09 01:46:24;;;;;;;;;22.50;20.25;;;;;;;;1984640;28;3587704;-79
2023/06/09 01:47:35;;;;;;;;;22.50;20.00;;;;;;;;1985694;28;2848210;-79
2023/06/09 01:49:06;;;;;;;;;25.14;23.29;;;;;;;;1977268;28;3590880;-79
2023/06/09 01:50:36;;;;;;;;;27.33;26.00;;;;;;;;1951167;28;3587765;-79
2023/06/09 01:51:48;;;;;;;;;25.00;23.00;;;;;;;;1948942;28;3596126;-79
2023/06/09 01:53:04;;;;;;;;;23.29;20.86;;;;;;;;1983088;28;3589790;-79
2023/06/09 01:54:20;;;;;;;;;25.00;20.00;;;;;;;;1960428;28;3585648;-79
2023/06/09 01:55:50;;;;;;;;;24.00;22.00;;;;;;;;1960864;28;3586678;-79
2023/06/09 01:57:06;;;;;;;;;30.50;27.50;;;;;;;;1954571;28;2862777;-79
2023/06/09 01:58:19;;;;;;;;;27.33;25.67;;;;;;;;1954274;28;3591910;-79
2023/06/09 01:59:37;;;;;;;;;23.67;21.67;;;;;;;;1960876;28;3582504;-79
2023/06/09 02:00:49;;;;;;;;;26.00;24.33;;;;;;;;1957869;28;3587744;-76
2023/06/09 02:02:01;;;;;;;;;26.00;25.00;;;;;;;;1953292;28;3587057;-75
2023/06/09 02:03:15;;;;;;;;;25.00;22.33;;;;;;;;1958915;28;3581493;-75
2023/06/09 02:04:27;;;;;;;;;26.00;21.67;;;;;;;;1952570;28;3585657;-75
2023/06/09 02:05:39;;;;;;;;;22.67;21.00;;;;;;;;1945823;28;3573158;-75
2023/06/09 02:06:51;;;;;;;;;26.67;26.00;;;;;;;;1947809;28;3601644;-75
2023/06/09 02:08:03;;;;;;;;;23.67;21.67;;;;;;;;1949763;28;3581466;-78
2023/06/09 02:09:15;;;;;;;;;24.33;22.00;;;;;;;;1960098;28;3576259;-75
2023/06/09 02:10:29;;;;;;;;;27.86;26.00;;;;;;;;1978411;28;3591902;-75
2023/06/09 02:11:40;;;;;;;;;24.00;22.50;;;;;;;;1962776;28;2841948;-75
2023/06/09 02:12:52;;;;;;;;;22.86;22.14;;;;;;;;1975971;28;3589859;-75
2023/06/09 02:14:03;;;;;;;;;24.00;20.40;;;;;;;;1968622;28;2835778;-75
2023/06/09 02:15:15;;;;;;;;;26.67;24.67;;;;;;;;1984446;28;3596210;-75
2023/06/09 02:16:26;;;;;;;;;27.80;26.20;;;;;;;;1960917;28;2849961;-76
2023/06/09 02:17:39;;;;;;;;;22.20;21.80;;;;;;;;1974813;28;2845199;-76
2023/06/09 02:18:51;;;;;;;;;26.67;25.00;;;;;;;;1969882;28;3591856;-76
2023/06/09 02:20:05;;;;;;;;;22.67;21.00;;;;;;;;1960647;28;3582517;-76
2023/06/09 02:21:16;;;;;;;;;25.33;21.00;;;;;;;;1952196;28;3581494;-76
2023/06/09 02:22:29;;;;;;;;;25.43;24.14;;;;;;;;1968449;28;3587716;-76
2023/06/09 02:23:41;;;;;;;;;28.20;25.20;;;;;;;;1973184;28;3591878;-76
2023/06/09 02:24:55;;;;;;;;;24.14;24.14;;;;;;;;1982511;28;3593978;-76
2023/06/09 02:26:06;;;;;;;;;30.00;25.00;;;;;;;;1953757;28;2858567;-76
2023/06/09 02:27:17;;;;;;;;;20.00;19.00;;;;;;;;1956991;28;2854401;-76
2023/06/09 02:28:28;;;;;;;;;25.67;24.33;;;;;;;;1965983;28;3574581;-76
2023/06/09 02:29:40;;;;;;;;;27.00;25.60;;;;;;;;1970423;28;2840856;-76
2023/06/09 02:30:51;;;;;;;;;24.67;24.33;;;;;;;;1986488;28;3585613;-76
2023/06/09 02:32:04;;;;;;;;;28.33;23.00;;;;;;;;1961603;28;3579387;-76
2023/06/09 02:33:15;;;;;;;;;28.33;25.00;;;;;;;;1969862;28;3595043;-76
2023/06/09 02:34:30;;;;;;;;;25.25;24.38;;;;;;;;1974025;28;3593938;-76
2023/06/09 02:35:42;;;;;;;;;26.67;22.00;;;;;;;;1976248;28;3572080;-76
2023/06/09 02:36:54;;;;;;;;;25.60;22.00;;;;;;;;1959316;28;2844078;-76
2023/06/09 02:38:07;;;;;;;;;27.00;24.50;;;;;;;;1977711;28;2854393;-76
2023/06/09 02:39:19;;;;;;;;;29.33;25.00;;;;;;;;1958025;28;3604378;-76
2023/06/09 02:40:31;;;;;;;;;23.67;22.00;;;;;;;;1968792;28;3581490;-76
2023/06/09 02:41:41;;;;;;;;;23.00;23.00;;;;;;;;1962622;28;2841935;-76
2023/06/09 02:42:55;;;;;;;;;26.50;24.25;;;;;;;;1969428;28;3589823;-78
2023/06/09 02:44:06;;;;;;;;;21.67;20.00;;;;;;;;1964087;28;2843657;-75
2023/06/09 02:45:17;;;;;;;;;22.50;21.50;;;;;;;;1979578;28;2836693;-75
2023/06/09 02:46:30;;;;;;;;;23.88;23.00;;;;;;;;1981621;28;3591859;-75
2023/06/09 02:47:41;;;;;;;;;26.67;24.67;;;;;;;;1972317;28;3579391;-76
2023/06/09 02:48:52;;;;;;;;;21.40;21.00;;;;;;;;1962988;28;2842002;-76
2023/06/09 02:50:07;;;;;;;;;31.63;28.25;;;;;;;;1997157;28;3593015;-76
2023/06/09 02:51:18;;;;;;;;;25.33;24.33;;;;;;;;1975714;28;3583562;-76
2023/06/09 02:52:32;;;;;;;;;25.63;24.25;;;;;;;;1974009;28;3596113;-76
2023/06/09 02:53:42;;;;;;;;;29.00;25.00;;;;;;;;1978410;28;2858583;-76
2023/06/09 02:54:54;;;;;;;;;31.00;27.40;;;;;;;;1959992;28;2851417;-75
2023/06/09 02:56:04;;;;;;;;;28.00;25.00;;;;;;;;1979363;28;2845006;-74
2023/06/09 02:57:18;;;;;;;;;26.00;25.75;;;;;;;;1984327;28;3592912;-74
2023/06/09 02:58:29;;;;;;;;;21.33;20.67;;;;;;;;1980327;28;3576322;-75
2023/06/09 02:59:42;;;;;;;;;23.14;22.57;;;;;;;;1970082;28;3576246;-77
2023/06/09 03:00:56;;;;;;;;;30.50;26.13;;;;;;;;1971337;28;3600988;-74
2023/06/09 03:02:08;;;;;;;;;27.00;26.80;;;;;;;;1987582;28;3590832;-75
2023/06/09 03:03:21;;;;;;;;;28.00;24.14;;;;;;;;1975825;28;3594473;-75
2023/06/09 03:04:35;;;;;;;;;28.50;24.50;;;;;;;;1973498;28;3600266;-74
2023/06/09 03:05:49;;;;;;;;;26.00;22.00;;;;;;;;1978887;28;3580459;-75
2023/06/09 03:07:00;;;;;;;;;24.50;20.50;;;;;;;;1954689;28;2831910;-75
2023/06/09 03:08:11;;;;;;;;;22.00;21.67;;;;;;;;1962183;28;3583523;-76
2023/06/09 03:09:25;;;;;;;;;29.25;26.38;;;;;;;;1970741;28;3587716;-76
2023/06/09 03:10:37;;;;;;;;;26.67;22.00;;;;;;;;1965636;28;3581498;-74
2023/06/09 03:11:48;;;;;;;;;27.00;24.40;;;;;;;;1959348;28;3581452;-74
2023/06/09 03:13:02;;;;;;;;;25.63;23.63;;;;;;;;1974315;28;3587704;-74
2023/06/09 03:14:13;;;;;;;;;23.67;23.00;;;;;;;;1982670;28;3568971;-74
2023/06/09 03:15:26;;;;;;;;;25.71;24.43;;;;;;;;1977875;28;3590810;-74
2023/06/09 03:16:38;;;;;;;;;23.00;23.00;;;;;;;;1966646;28;3572080;-74
2023/06/09 03:17:51;;;;;;;;;25.29;23.29;;;;;;;;1998173;28;3584599;-74
2023/06/09 03:19:05;;;;;;;;;26.00;24.00;;;;;;;;1980910;28;3595066;-74
2023/06/09 03:20:16;;;;;;;;;24.67;24.00;;;;;;;;1980566;28;3587767;-74
2023/06/09 03:21:27;;;;;;;;;26.00;24.80;;;;;;;;1970286;28;2839940;-74
2023/06/09 03:22:39;;;;;;;;;29.67;24.33;;;;;;;;1972637;28;3599163;-74
2023/06/09 03:23:50;;;;;;;;;26.20;25.00;;;;;;;;1958983;28;2852423;-75
2023/06/09 03:25:02;;;;;;;;;27.00;26.00;;;;;;;;1979170;28;3596022;-74
2023/06/09 03:26:15;;;;;;;;;27.43;25.29;;;;;;;;1973216;28;3586662;-76
2023/06/09 03:27:26;;;;;;;;;23.40;22.20;;;;;;;;1969495;28;3582524;-78
2023/06/09 03:28:39;;;;;;;;;26.00;25.29;;;;;;;;1994410;28;3586739;-77
2023/06/09 03:29:52;;;;;;;;;26.71;25.29;;;;;;;;1969089;28;3588798;-77
2023/06/09 03:31:04;;;;;;;;;22.20;22.20;;;;;;;;1972441;28;3581439;-77
2023/06/09 03:32:16;;;;;;;;;25.80;22.40;;;;;;;;1987206;28;3568999;-75
2023/06/09 03:33:27;;;;;;;;;24.60;24.40;;;;;;;;1961540;28;2846192;-75
2023/06/09 03:34:40;;;;;;;;;30.67;27.00;;;;;;;;1986090;28;3597082;-79
2023/06/09 03:35:52;;;;;;;;;26.67;23.33;;;;;;;;1961012;28;3590827;-75
2023/06/09 03:37:04;;;;;;;;;22.80;20.60;;;;;;;;1969620;28;2835727;-75
2023/06/09 03:38:15;;;;;;;;;27.33;26.00;;;;;;;;1982846;28;3585628;-75
2023/06/09 03:39:26;;;;;;;;;27.80;25.60;;;;;;;;1955074;28;2841988;-77
2023/06/09 03:40:37;;;;;;;;;24.00;24.00;;;;;;;;1965967;28;3592901;-77
2023/06/09 03:41:54;;;;;;;;;28.50;27.00;;;;;;;;1970071;28;3598161;-79
2023/06/09 03:43:07;;;;;;;;;25.67;22.33;;;;;;;;1982625;28;3589823;-79
2023/06/09 03:44:18;;;;;;;;;27.67;21.67;;;;;;;;1960441;28;3599202;-78
2023/06/09 03:45:30;;;;;;;;;22.60;19.60;;;;;;;;1987021;28;3582524;-78
2023/06/09 03:46:43;;;;;;;;;28.14;24.43;;;;;;;;1975066;28;3591875;-76
2023/06/09 03:47:56;;;;;;;;;28.00;26.00;;;;;;;;1975696;28;3595385;-77
2023/06/09 03:49:08;;;;;;;;;26.33;24.00;;;;;;;;1974331;28;3585629;-77
2023/06/09 03:50:21;;;;;;;;;27.38;25.38;;;;;;;;1968495;28;3600591;-77
2023/06/09 03:51:32;;;;;;;;;23.50;23.50;;;;;;;;1969246;28;2850262;-77
2023/06/09 03:52:46;;;;;;;;;27.50;25.00;;;;;;;;1973018;28;3589843;-77
2023/06/09 03:53:57;;;;;;;;;20.67;19.33;;;;;;;;1970222;28;2826260;-77
2023/06/09 03:55:07;;;;;;;;;24.50;24.00;;;;;;;;1966361;28;2842965;-79
2023/06/09 03:56:20;;;;;;;;;25.71;24.43;;;;;;;;1971467;28;3593953;-76
2023/06/09 03:57:33;;;;;;;;;20.29;19.29;;;;;;;;1973419;28;3579419;-76
2023/06/09 03:58:44;;;;;;;;;25.40;23.40;;;;;;;;1951466;28;2849387;-76
2023/06/09 03:59:56;;;;;;;;;24.00;21.40;;;;;;;;2005893;28;3578693;-76
2023/06/09 04:01:12;;;;;;;;;28.88;26.38;;;;;;;;1996541;28;3610629;-76
2023/06/09 04:02:23;;;;;;;;;26.00;23.67;;;;;;;;1953491;28;3580416;-76
2023/06/09 04:03:37;;;;;;;;;24.00;21.63;;;;;;;;1984120;28;3596026;-77
2023/06/09 04:04:48;;;;;;;;;23.33;22.00;;;;;;;;1975528;28;3577350;-78
2023/06/09 04:06:03;;;;;;;;;27.25;25.00;;;;;;;;1977322;28;3596046;-78
2023/06/09 04:07:14;;;;;;;;;27.00;22.67;;;;;;;;1977455;28;3591894;-77
2023/06/09 04:08:26;;;;;;;;;28.00;24.33;;;;;;;;1964738;28;3602315;-78
2023/06/09 04:09:37;;;;;;;;;25.40;23.80;;;;;;;;1960746;28;2835741;-78
2023/06/09 04:10:51;;;;;;;;;28.88;24.63;;;;;;;;2004016;28;3602327;-78
2023/06/09 04:12:03;;;;;;;;;25.33;24.67;;;;;;;;1983716;28;3587720;-76
2023/06/09 04:13:15;;;;;;;;;25.33;23.00;;;;;;;;1968572;28;3589850;-76
2023/06/09 04:14:26;;;;;;;;;22.00;22.00;;;;;;;;1963501;28;2845150;-76
2023/06/09 04:15:37;;;;;;;;;27.00;26.67;;;;;;;;1983867;28;3589794;-76
2023/06/09 04:16:50;;;;;;;;;28.43;25.00;;;;;;;;1975894;28;3586687;-76
2023/06/09 04:18:03;;;;;;;;;26.80;24.60;;;;;;;;1960119;28;2846188;-76
2023/06/09 04:19:14;;;;;;;;;26.00;23.00;;;;;;;;1977640;28;3581435;-76
2023/06/09 04:20:26;;;;;;;;;28.00;24.80;;;;;;;;1989379;28;3577283;-78
2023/06/09 04:21:38;;;;;;;;;31.20;25.60;;;;;;;;1963407;28;3602339;-77
2023/06/09 04:22:50;;;;;;;;;27.00;24.00;;;;;;;;1962208;28;3600248;-77
2023/06/09 04:24:02;;;;;;;;;29.00;26.00;;;;;;;;1950688;28;3588084;-76
2023/06/09 04:25:14;;;;;;;;;21.40;20.00;;;;;;;;1978335;28;3581431;-76
2023/06/09 04:26:27;;;;;;;;;28.13;25.00;;;;;;;;1981516;28;3601241;-76
2023/06/09 04:27:39;;;;;;;;;25.67;24.67;;;;;;;;1981466;28;3593064;-78
2023/06/09 04:28:53;;;;;;;;;25.60;24.00;;;;;;;;1966523;28;2836793;-79
2023/06/09 04:30:05;;;;;;;;;22.00;22.00;;;;;;;;1975879;28;3572120;-79
2023/06/09 04:31:18;;;;;;;;;28.33;26.00;;;;;;;;1950024;28;3596061;-79
2023/06/09 04:32:32;;;;;;;;;25.00;23.00;;;;;;;;1953782;28;3580468;-79
2023/06/09 04:33:46;;;;;;;;;23.67;22.67;;;;;;;;1957968;28;3583576;-80
2023/06/09 04:34:57;;;;;;;;;24.50;24.50;;;;;;;;1956171;28;2850270;-80
2023/06/09 04:36:10;;;;;;;;;27.43;22.57;;;;;;;;1980293;28;3587759;-75
2023/06/09 04:37:25;;;;;;;;;24.67;20.67;;;;;;;;1963611;28;3575252;-75
2023/06/09 04:38:36;;;;;;;;;27.67;24.00;;;;;;;;1956678;28;2850221;-75
2023/06/09 04:39:47;;;;;;;;;25.00;21.67;;;;;;;;1982868;28;3583554;-75
2023/06/09 04:41:01;;;;;;;;;30.20;27.20;;;;;;;;1971031;28;2856573;-75
2023/06/09 04:42:12;;;;;;;;;23.67;23.67;;;;;;;;1975198;28;3587767;-75
2023/06/09 04:43:27;;;;;;;;;26.50;24.75;;;;;;;;1968440;28;3586690;-75
2023/06/09 04:44:39;;;;;;;;;23.50;23.50;;;;;;;;1979021;28;2848255;-75
2023/06/09 04:45:55;;;;;;;;;26.00;24.67;;;;;;;;1953147;28;3589856;-80
2023/06/09 04:47:07;;;;;;;;;29.33;26.00;;;;;;;;1946659;28;3596064;-75
2023/06/09 04:48:19;;;;;;;;;27.67;24.00;;;;;;;;1944848;28;3591938;-75
2023/06/09 04:49:31;;;;;;;;;23.50;23.50;;;;;;;;1948031;28;2846126;-76
2023/06/09 04:50:44;;;;;;;;;27.67;26.33;;;;;;;;1959392;28;3591950;-76
2023/06/09 04:51:56;;;;;;;;;24.67;24.67;;;;;;;;1961189;28;3582509;-75
2023/06/09 04:53:07;;;;;;;;;27.00;23.00;;;;;;;;1964539;28;3589815;-75
2023/06/09 04:54:25;;;;;;;;;27.71;25.29;;;;;;;;1969177;28;3591855;-76
2023/06/09 04:55:36;;;;;;;;;24.33;22.33;;;;;;;;1946798;28;3585656;-75
2023/06/09 04:56:52;;;;;;;;;25.25;23.38;;;;;;;;1968122;28;3592893;-75
2023/06/09 04:58:03;;;;;;;;;25.67;25.00;;;;;;;;1976978;28;3585648;-76
2023/06/09 04:59:14;;;;;;;;;22.00;22.00;;;;;;;;1966156;28;2837854;-81
2023/06/09 05:00:27;;;;;;;;;26.20;23.60;;;;;;;;1995249;28;3576318;-81
2023/06/09 05:01:38;;;;;;;;;28.50;26.50;;;;;;;;1964316;28;2841912;-82
2023/06/09 05:02:51;;;;;;;;;23.50;21.00;;;;;;;;1951805;28;2848162;-81
2023/06/09 05:04:02;;;;;;;;;25.33;24.67;;;;;;;;1952238;28;3587727;-82
2023/06/09 05:05:15;;;;;;;;;23.00;20.29;;;;;;;;1973857;28;3587719;-82
2023/06/09 05:06:27;;;;;;;;;25.67;24.00;;;;;;;;1969016;28;3596017;-81
2023/06/09 05:07:41;;;;;;;;;23.00;21.60;;;;;;;;1963001;28;2840914;-81
2023/06/09 05:08:51;;;;;;;;;29.50;24.50;;;;;;;;1969573;28;2850308;-81
2023/06/09 05:10:02;;;;;;;;;27.60;25.60;;;;;;;;1953053;28;2852466;-81
2023/06/09 05:11:15;;;;;;;;;24.29;22.57;;;;;;;;1996813;28;3587755;-81
2023/06/09 05:12:29;;;;;;;;;27.88;25.00;;;;;;;;1975498;28;3599209;-82
2023/06/09 05:13:40;;;;;;;;;26.33;23.33;;;;;;;;1975199;28;3582495;-82
2023/06/09 05:14:51;;;;;;;;;32.80;28.20;;;;;;;;1958544;28;2843064;-81
2023/06/09 05:16:04;;;;;;;;;27.80;24.80;;;;;;;;2009437;28;3583522;-81
2023/06/09 05:17:15;;;;;;;;;29.00;25.50;;;;;;;;1981473;28;2506653;-81
2023/06/09 05:18:27;;;;;;;;;25.00;24.00;;;;;;;;1950796;28;3591887;-82
2023/06/09 05:19:38;;;;;;;;;28.60;27.40;;;;;;;;1967776;28;2856582;-81
2023/06/09 05:20:50;;;;;;;;;24.86;24.29;;;;;;;;2006088;28;3590880;-76
2023/06/09 05:22:01;;;;;;;;;25.80;24.40;;;;;;;;1958358;28;2843113;-76
2023/06/09 05:23:13;;;;;;;;;26.40;23.60;;;;;;;;2002835;28;3589096;-76
2023/06/09 05:24:24;;;;;;;;;26.40;23.60;;;;;;;;1982177;28;2851439;-76
2023/06/09 05:25:37;;;;;;;;;27.00;23.67;;;;;;;;1976122;28;3582476;-76
2023/06/09 05:26:47;;;;;;;;;24.00;22.50;;;;;;;;1952080;28;2507057;-81
2023/06/09 05:28:00;;;;;;;;;22.86;20.71;;;;;;;;1964251;28;3575232;-81
2023/06/09 05:29:12;;;;;;;;;24.80;24.00;;;;;;;;1974151;28;3575268;-81
2023/06/09 05:30:24;;;;;;;;;27.00;23.80;;;;;;;;2009888;28;3569010;-81
2023/06/09 05:31:35;;;;;;;;;26.00;25.00;;;;;;;;1957510;28;2848209;-80
2023/06/09 05:32:46;;;;;;;;;28.67;26.67;;;;;;;;1978103;28;3599580;-80
2023/06/09 05:33:58;;;;;;;;;26.60;23.60;;;;;;;;1987099;28;3572060;-81
2023/06/09 05:35:10;;;;;;;;;21.40;20.20;;;;;;;;1985456;28;3581041;-81
2023/06/09 05:36:21;;;;;;;;;21.80;21.80;;;;;;;;1962255;28;2840969;-75
2023/06/09 05:37:32;;;;;;;;;25.20;22.80;;;;;;;;1989158;28;3582520;-75
2023/06/09 05:38:43;;;;;;;;;24.60;22.60;;;;;;;;1988681;28;2845080;-76
2023/06/09 05:39:54;;;;;;;;;29.50;25.00;;;;;;;;1972129;28;2858898;-76
2023/06/09 05:41:07;;;;;;;;;28.88;27.25;;;;;;;;1972407;28;3606470;-76
2023/06/09 05:42:19;;;;;;;;;27.33;24.67;;;;;;;;1946445;28;3589834;-76
2023/06/09 05:43:32;;;;;;;;;26.57;26.00;;;;;;;;1976749;28;3589792;-82
2023/06/09 05:44:44;;;;;;;;;20.33;18.00;;;;;;;;1969518;28;3558587;-75
2023/06/09 05:45:59;;;;;;;;;22.60;22.20;;;;;;;;1974585;28;3583510;-76
2023/06/09 05:47:10;;;;;;;;;27.00;25.67;;;;;;;;1944642;28;3593974;-76
2023/06/09 05:48:23;;;;;;;;;23.29;22.29;;;;;;;;1969109;28;3580414;-76
2023/06/09 05:49:37;;;;;;;;;26.25;23.50;;;;;;;;1959983;28;3580520;-75
2023/06/09 05:50:48;;;;;;;;;24.00;21.00;;;;;;;;1965892;28;3580500;-75
2023/06/09 05:52:00;;;;;;;;;16.80;16.60;;;;;;;;1969880;28;3573115;-75
2023/06/09 05:53:11;;;;;;;;;30.20;29.00;;;;;;;;1976259;28;2854577;-75
2023/06/09 05:54:24;;;;;;;;;22.86;21.43;;;;;;;;1985841;28;3584615;-75
2023/06/09 05:55:36;;;;;;;;;24.33;22.00;;;;;;;;1948481;28;3574147;-75
2023/06/09 05:56:53;;;;;;;;;21.67;21.33;;;;;;;;1954564;28;3579499;-75
2023/06/09 05:58:04;;;;;;;;;26.33;21.00;;;;;;;;1949749;28;3582540;-75
2023/06/09 05:59:20;;;;;;;;;28.20;25.80;;;;;;;;1970116;28;3587678;-75
2023/06/09 06:00:30;;;;;;;;;22.50;20.50;;;;;;;;1946901;28;2506513;-75
2023/06/09 06:01:43;;;;;;;;;22.00;22.00;;;;;;;;1979589;28;3581515;-75
2023/06/09 06:02:56;;;;;;;;;26.80;21.20;;;;;;;;1979525;28;3580476;-75
2023/06/09 06:04:08;;;;;;;;;25.33;22.00;;;;;;;;1981880;28;3589930;-75
2023/06/09 06:05:20;;;;;;;;;21.33;20.00;;;;;;;;1959636;28;3572183;-75
2023/06/09 06:06:31;;;;;;;;;22.33;22.33;;;;;;;;1957112;28;3587813;-75
2023/06/09 06:07:42;;;;;;;;;23.20;22.80;;;;;;;;1967520;28;2846168;-75
2023/06/09 06:08:56;;;;;;;;;27.38;24.38;;;;;;;;2002254;28;3594013;-75
2023/06/09 06:10:07;;;;;;;;;25.00;23.33;;;;;;;;1969742;28;3578306;-75
2023/06/09 06:11:18;;;;;;;;;23.40;22.40;;;;;;;;1953969;28;2841186;-75
2023/06/09 06:12:30;;;;;;;;;23.60;21.60;;;;;;;;1992611;28;3585688;-75
2023/06/09 06:13:42;;;;;;;;;25.33;22.00;;;;;;;;1978374;28;3579467;-75
2023/06/09 06:14:53;;;;;;;;;27.40;22.80;;;;;;;;1957029;28;2847668;-75
2023/06/09 06:16:04;;;;;;;;;22.67;21.00;;;;;;;;1978320;28;3591882;-76
2023/06/09 06:17:15;;;;;;;;;26.80;24.00;;;;;;;;1954330;28;2844133;-75
2023/06/09 06:18:28;;;;;;;;;26.71;22.86;;;;;;;;1988052;28;3585708;-75
2023/06/09 06:19:41;;;;;;;;;25.29;22.29;;;;;;;;1968450;28;3589819;-76
2023/06/09 06:20:54;;;;;;;;;25.43;22.29;;;;;;;;1972004;28;3585672;-75
2023/06/09 06:22:06;;;;;;;;;26.33;22.00;;;;;;;;1959084;28;3589832;-76
2023/06/09 06:23:19;;;;;;;;;23.86;22.71;;;;;;;;1972834;28;3581482;-76
2023/06/09 06:24:31;;;;;;;;;25.00;23.00;;;;;;;;1969685;28;3596157;-76
2023/06/09 06:25:43;;;;;;;;;24.00;21.00;;;;;;;;1975187;28;3594019;-76
2023/06/09 06:26:55;;;;;;;;;25.29;21.86;;;;;;;;1975351;28;3589788;-76
2023/06/09 06:28:08;;;;;;;;;22.80;22.40;;;;;;;;1973150;28;3582508;-76
2023/06/09 06:29:20;;;;;;;;;26.57;22.86;;;;;;;;1991886;28;3585684;-76
2023/06/09 06:30:33;;;;;;;;;23.29;22.71;;;;;;;;1972492;28;3586772;-75
2023/06/09 06:31:48;;;;;;;;;23.14;19.57;;;;;;;;1969990;28;3596085;-75
2023/06/09 06:32:59;;;;;;;;;22.00;19.67;;;;;;;;1957771;28;3577331;-75
2023/06/09 06:34:12;;;;;;;;;23.71;22.00;;;;;;;;1978948;28;3588730;-75
2023/06/09 06:35:26;;;;;;;;;26.29;22.57;;;;;;;;1971757;28;3594933;-75
2023/06/09 06:36:37;;;;;;;;;23.00;23.00;;;;;;;;1940975;28;3583526;-75
2023/06/09 06:37:50;;;;;;;;;21.57;21.00;;;;;;;;1964617;28;3582608;-75
2023/06/09 06:39:03;;;;;;;;;24.29;22.43;;;;;;;;1957838;28;3589842;-75
2023/06/09 06:40:17;;;;;;;;;30.63;22.38;;;;;;;;1972003;28;3603424;-75
2023/06/09 06:41:30;;;;;;;;;23.14;21.43;;;;;;;;1989594;28;3580393;-75
2023/06/09 06:42:43;;;;;;;;;23.86;22.00;;;;;;;;1973131;28;3584599;-78
2023/06/09 06:43:55;;;;;;;;;23.33;21.00;;;;;;;;1961031;28;3579376;-75
2023/06/09 06:45:06;;;;;;;;;25.00;22.80;;;;;;;;1959140;28;2838912;-75
2023/06/09 06:46:18;;;;;;;;;25.67;24.00;;;;;;;;1981966;28;3577323;-75
2023/06/09 06:47:29;;;;;;;;;26.67;22.00;;;;;;;;1949795;28;3591899;-75
2023/06/09 06:48:43;;;;;;;;;23.50;21.63;;;;;;;;1970705;28;3593045;-75
2023/06/09 06:49:54;;;;;;;;;23.00;21.67;;;;;;;;1970916;28;3579398;-75
2023/06/09 06:51:07;;;;;;;;;23.86;22.00;;;;;;;;1974196;28;3593004;-75